Time;durP1;ratioP1;P1;durP2;ratioP2;P2;SDS_P1;SDS_P2;PMS_P1;PMS_P2;Temp;Humidity;BMP_temperature;BMP_pressure;BME280_temperature;BME280_humidity;BME280_pressure;Samples;Min_cycle;Max_cycle;Signal;HPM_P1;HPM_P2
2021/06/12 00:01:58;;;;;;;;;;;;;;;21.79;56.90;100112.63;5055927;28;19925;-63
2021/06/12 00:04:25;;;;;;;;;;;;;;;21.77;56.88;100109.31;5057315;28;19932;-62
2021/06/12 00:06:57;;;;;;;;;;;;;;;21.49;56.95;100069.63;5054809;28;20439;-62
2021/06/12 00:09:24;;;;;;;;;;;;;;;21.78;56.56;100111.00;5058449;28;20015;-62
2021/06/12 00:11:50;;;;;;;;;;;;;;;21.75;56.44;100111.72;5055213;28;20316;-62
2021/06/12 00:14:17;;;;;;;;;;;;;;;21.93;56.26;100107.31;5057540;28;19935;-62
2021/06/12 00:16:44;;;;;;;;;;;;;;;21.95;56.13;100115.47;5053249;28;19925;-61
2021/06/12 00:19:11;;;;;;;;;;;;;;;22.13;55.91;100130.13;5064102;28;19924;-63
2021/06/12 00:21:38;;;;;;;;;;;;;;;22.29;55.68;100128.13;5067681;28;19986;-63
2021/06/12 00:24:07;;;;;;;;;;;;;;;22.58;54.99;100126.72;5054044;28;20027;-63
2021/06/12 00:26:34;;;;;;;;;;;;;;;22.67;54.85;100135.91;5058933;28;20355;-62
2021/06/12 00:29:01;;;;;;;;;;;;;;;22.70;54.61;100128.59;5067881;28;20000;-62
2021/06/12 00:31:29;;;;;;;;;;;;;;;22.84;54.37;100133.81;5037769;28;19931;-61
2021/06/12 00:33:55;;;;;;;;;;;;;;;22.84;53.88;100126.09;5055798;28;19929;-60
2021/06/12 00:36:22;;;;;;;;;;;;;;;22.89;53.52;100116.41;5059665;28;20373;-62
2021/06/12 00:38:50;;;;;;;;;;;;;;;22.93;52.94;100121.00;5054572;28;20120;-62
2021/06/12 00:41:21;;;;;;;;;;;;;;;23.06;52.41;100127.38;5054080;28;20008;-63
2021/06/12 00:43:48;;;;;;;;;;;;;;;23.30;52.56;100131.13;5052273;28;20023;-62
2021/06/12 00:46:15;;;;;;;;;;;;;;;23.49;52.91;100133.94;5055999;28;20027;-62
2021/06/12 00:48:43;;;;;;;;;;;;;;;23.55;53.39;100151.53;5056746;28;19928;-62
2021/06/12 00:51:09;;;;;;;;;;;;;;;23.53;53.52;100162.50;5061606;28;19924;-63
2021/06/12 00:53:37;;;;;;;;;;;;;;;23.47;53.82;100161.16;5056703;28;19925;-63
2021/06/12 00:56:11;;;;;;;;;;;;;;;23.40;54.17;100161.84;5054091;28;20019;-63
2021/06/12 00:58:42;;;;;;;;;;;;;;;23.33;54.23;100164.56;5039558;28;19999;-63
2021/06/12 01:01:13;;;;;;;;;;;;;;;23.28;54.42;100157.16;5055851;28;19972;-63
2021/06/12 01:03:40;;;;;;;;;;;;;;;23.26;54.81;100164.41;5054066;28;19972;-63
2021/06/12 01:06:11;;;;;;;;;;;;;;;23.18;54.77;100174.84;5058765;28;19975;-63
2021/06/12 01:08:37;;;;;;;;;;;;;;;23.13;55.04;100186.53;5054622;28;19980;-63
2021/06/12 01:11:05;;;;;;;;;;;;;;;23.06;55.30;100177.81;5062922;28;19929;-62
2021/06/12 01:13:35;;;;;;;;;;;;;;;23.03;55.21;100184.28;5061562;28;19956;-62
2021/06/12 01:16:05;;;;;;;;;;;;;;;22.94;55.42;100179.63;5058575;28;19939;-62
2021/06/12 01:18:33;;;;;;;;;;;;;;;22.86;55.55;100172.09;5058790;28;19925;-63
2021/06/12 01:20:59;;;;;;;;;;;;;;;22.83;55.61;100178.50;5068861;28;19975;-63
2021/06/12 01:24:01;;;;;;;;;;;;;;;22.77;55.46;100174.34;5062620;28;19967;-63
2021/06/12 01:26:31;;;;;;;;;;;;;;;22.69;55.63;100167.63;5024639;28;20017;-62
2021/06/12 01:29:16;;;;;;;;;;;;;;;22.69;55.61;100192.44;5050596;28;19970;-62
2021/06/12 01:31:44;;;;;;;;;;;;;;;22.67;55.45;100187.13;5054846;28;19950;-61
2021/06/12 01:34:11;;;;;;;;;;;;;;;22.67;55.63;100189.97;5055815;28;19925;-65
2021/06/12 01:36:37;;;;;;;;;;;;;;;22.63;55.57;100189.06;5067148;28;20019;-65
2021/06/12 01:39:04;;;;;;;;;;;;;;;22.57;55.73;100178.34;5055452;28;20015;-65
2021/06/12 01:41:33;;;;;;;;;;;;;;;22.48;55.78;100176.50;5060971;28;19931;-66
2021/06/12 01:44:00;;;;;;;;;;;;;;;22.42;55.87;100180.81;5058161;28;20015;-65
2021/06/12 01:46:28;;;;;;;;;;;;;;;22.36;55.79;100188.03;5054704;28;20000;-65
2021/06/12 01:48:58;;;;;;;;;;;;;;;22.29;55.71;100193.53;5061821;28;19971;-65
2021/06/12 01:51:25;;;;;;;;;;;;;;;22.00;55.63;100152.13;5058203;28;19983;-64
2021/06/12 01:53:54;;;;;;;;;;;;;;;22.27;55.52;100200.78;5065823;28;19977;-63
2021/06/12 01:56:22;;;;;;;;;;;;;;;22.26;55.60;100202.81;5068127;28;20364;-67
2021/06/12 01:58:49;;;;;;;;;;;;;;;22.24;55.67;100197.47;5036764;28;20007;-68
2021/06/12 02:01:17;;;;;;;;;;;;;;;22.23;55.45;100195.00;5061903;28;20331;-68
2021/06/12 02:03:45;;;;;;;;;;;;;;;22.21;55.68;100183.97;5059067;28;19979;-65
2021/06/12 02:06:13;;;;;;;;;;;;;;;22.18;55.63;100184.72;5058020;28;19967;-65
2021/06/12 02:08:41;;;;;;;;;;;;;;;22.20;55.57;100187.22;5058319;28;20376;-67
2021/06/12 02:11:08;;;;;;;;;;;;;;;22.14;55.64;100178.09;5069806;28;20012;-65
2021/06/12 02:13:35;;;;;;;;;;;;;;;22.15;55.47;100188.31;5058951;28;20297;-65
2021/06/12 02:16:03;;;;;;;;;;;;;;;22.18;55.37;100195.28;5061549;28;20518;-66
2021/06/12 02:18:29;;;;;;;;;;;;;;;22.19;55.37;100183.53;5057679;28;19947;-65
2021/06/12 02:20:57;;;;;;;;;;;;;;;22.19;55.23;100172.16;5061367;28;19925;-65
2021/06/12 02:23:25;;;;;;;;;;;;;;;22.18;55.38;100186.75;5055954;28;20031;-65
2021/06/12 02:25:52;;;;;;;;;;;;;;;22.14;55.36;100174.41;5060064;28;20372;-64
2021/06/12 02:28:19;;;;;;;;;;;;;;;22.12;55.43;100179.63;5053418;28;20015;-65
2021/06/12 02:30:50;;;;;;;;;;;;;;;22.08;55.41;100182.41;5059785;28;20015;-68
2021/06/12 02:33:17;;;;;;;;;;;;;;;22.07;55.25;100179.94;5064605;28;20014;-69
2021/06/12 02:35:44;;;;;;;;;;;;;;;22.06;55.47;100179.13;5063107;28;20546;-69
2021/06/12 02:38:11;;;;;;;;;;;;;;;22.05;55.42;100183.16;5063624;28;20444;-68
2021/06/12 02:40:38;;;;;;;;;;;;;;;22.11;55.16;100181.66;5062967;28;19999;-68
2021/06/12 02:43:05;;;;;;;;;;;;;;;22.16;55.10;100181.44;5060244;28;19947;-68
2021/06/12 02:45:32;;;;;;;;;;;;;;;22.13;54.69;100181.31;5053725;28;20003;-69
2021/06/12 02:48:03;;;;;;;;;;;;;;;22.22;54.39;100187.66;5057586;28;20441;-69
2021/06/12 02:50:33;;;;;;;;;;;;;;;22.36;54.32;100185.19;5058750;28;19925;-66
2021/06/12 02:53:04;;;;;;;;;;;;;;;22.53;53.97;100197.34;5057852;28;20536;-68
2021/06/12 02:55:33;;;;;;;;;;;;;;;22.54;54.07;100193.31;5062446;28;19928;-68
2021/06/12 02:58:01;;;;;;;;;;;;;;;22.54;54.04;100202.66;5060445;28;19964;-68
2021/06/12 03:00:29;;;;;;;;;;;;;;;22.58;53.78;100194.22;5061121;28;19974;-67
2021/06/12 03:02:56;;;;;;;;;;;;;;;22.60;53.55;100194.69;5058127;28;19933;-65
2021/06/12 03:05:27;;;;;;;;;;;;;;;22.72;53.47;100186.00;5054463;28;20010;-65
2021/06/12 03:07:55;;;;;;;;;;;;;;;22.68;53.61;100183.06;5053941;28;20031;-64
2021/06/12 03:10:24;;;;;;;;;;;;;;;22.64;53.80;100192.75;5054769;28;19962;-66
2021/06/12 03:12:52;;;;;;;;;;;;;;;22.57;53.68;100193.41;5064090;28;19931;-66
2021/06/12 03:15:19;;;;;;;;;;;;;;;22.51;53.88;100194.06;5056352;28;20014;-66
2021/06/12 03:17:46;;;;;;;;;;;;;;;22.45;53.81;100191.47;5068760;28;20007;-67
2021/06/12 03:20:13;;;;;;;;;;;;;;;22.47;53.91;100191.13;5065400;28;20023;-67
2021/06/12 03:22:42;;;;;;;;;;;;;;;22.50;53.48;100201.75;5059084;28;19925;-65
2021/06/12 03:25:11;;;;;;;;;;;;;;;22.66;53.63;100196.03;5053210;28;19928;-66
2021/06/12 03:27:38;;;;;;;;;;;;;;;22.64;53.26;100193.56;5058587;28;20020;-67
2021/06/12 03:30:05;;;;;;;;;;;;;;;22.54;53.56;100196.16;5053256;28;20456;-64
2021/06/12 03:32:32;;;;;;;;;;;;;;;22.43;53.59;100185.34;5058548;28;20008;-63
2021/06/12 03:35:00;;;;;;;;;;;;;;;22.30;53.82;100183.81;5052208;28;20019;-68
2021/06/12 03:37:29;;;;;;;;;;;;;;;22.27;54.09;100190.22;5053635;28;20125;-68
2021/06/12 03:39:56;;;;;;;;;;;;;;;22.32;53.91;100186.25;5053351;28;20008;-67
2021/06/12 03:42:23;;;;;;;;;;;;;;;22.27;54.15;100192.25;5052644;28;19925;-67
2021/06/12 03:44:51;;;;;;;;;;;;;;;22.20;54.02;100190.88;5052536;28;19947;-68
2021/06/12 03:47:18;;;;;;;;;;;;;;;22.16;54.33;100189.97;5057999;28;20023;-65
2021/06/12 03:49:45;;;;;;;;;;;;;;;22.12;54.23;100196.69;5058888;28;19947;-65
2021/06/12 03:52:12;;;;;;;;;;;;;;;22.09;54.34;100183.25;5057187;28;20015;-64
2021/06/12 03:54:41;;;;;;;;;;;;;;;22.06;54.41;100190.47;5064714;28;20002;-64
2021/06/12 03:57:08;;;;;;;;;;;;;;;22.05;54.47;100190.84;5055044;28;20439;-64
2021/06/12 03:59:34;;;;;;;;;;;;;;;21.97;54.54;100187.81;5058753;28;20352;-64
2021/06/12 04:02:01;;;;;;;;;;;;;;;21.91;54.66;100200.63;5064426;28;19983;-64
2021/06/12 04:04:29;;;;;;;;;;;;;;;21.88;54.70;100207.09;5056760;28;20376;-67
2021/06/12 04:06:55;;;;;;;;;;;;;;;21.86;54.77;100198.09;5054765;28;19971;-64
2021/06/12 04:09:22;;;;;;;;;;;;;;;21.84;54.74;100208.97;5057374;28;19928;-64
2021/06/12 04:11:49;;;;;;;;;;;;;;;21.78;54.83;100204.78;5055969;28;19968;-64
2021/06/12 04:14:16;;;;;;;;;;;;;;;21.77;54.72;100206.78;5051972;28;19928;-64
2021/06/12 04:16:42;;;;;;;;;;;;;;;21.77;54.76;100212.47;5053708;28;20031;-65
2021/06/12 04:19:09;;;;;;;;;;;;;;;21.74;54.88;100201.84;5062962;28;19939;-65
2021/06/12 04:21:36;;;;;;;;;;;;;;;21.73;54.80;100202.19;5065440;28;20023;-63
2021/06/12 04:24:02;;;;;;;;;;;;;;;21.68;54.77;100202.47;5074338;28;19925;-64
2021/06/12 04:26:29;;;;;;;;;;;;;;;21.61;54.79;100207.97;5056833;28;20023;-63
2021/06/12 04:28:56;;;;;;;;;;;;;;;21.53;55.00;100207.75;5058019;28;20150;-68
2021/06/12 04:31:22;;;;;;;;;;;;;;;21.50;54.83;100207.63;5043542;28;19964;-65
2021/06/12 04:33:49;;;;;;;;;;;;;;;21.46;55.13;100213.22;5047128;28;20342;-66
2021/06/12 04:36:16;;;;;;;;;;;;;;;21.46;55.15;100213.22;5058193;28;20034;-65
2021/06/12 04:38:43;;;;;;;;;;;;;;;21.45;54.98;100220.09;5055996;28;19952;-66
2021/06/12 04:41:09;;;;;;;;;;;;;;;21.44;55.13;100226.16;5066224;28;20292;-63
2021/06/12 04:43:36;;;;;;;;;;;;;;;21.48;55.12;100218.56;5062627;28;20051;-62
2021/06/12 04:46:03;;;;;;;;;;;;;;;21.55;55.01;100226.47;5059128;28;19968;-71
2021/06/12 04:48:29;;;;;;;;;;;;;;;;;;5059820;28;20039;-64
2021/06/12 04:50:56;;;;;;;;;;;;;;;21.72;54.97;100223.28;5065453;28;20364;-64
2021/06/12 04:53:23;;;;;;;;;;;;;;;21.80;54.86;100233.66;5067457;28;19925;-64
2021/06/12 04:55:49;;;;;;;;;;;;;;;21.88;54.66;100235.50;5064281;28;19925;-65
2021/06/12 04:58:17;;;;;;;;;;;;;;;21.90;54.70;100235.13;5056463;28;20068;-62
2021/06/12 05:00:44;;;;;;;;;;;;;;;21.91;54.91;100243.28;5062398;28;20027;-65
2021/06/12 05:03:11;;;;;;;;;;;;;;;21.90;54.74;100250.16;5054220;28;19932;-62
2021/06/12 05:05:38;;;;;;;;;;;;;;;21.89;54.76;100254.22;5058839;28;19971;-67
2021/06/12 05:08:05;;;;;;;;;;;;;;;21.89;54.75;100259.91;5059549;28;19956;-67
2021/06/12 05:10:31;;;;;;;;;;;;;;;21.88;54.73;100252.56;5072291;28;20027;-67
2021/06/12 05:12:58;;;;;;;;;;;;;;;21.91;54.69;100263.19;5061529;28;19933;-67
2021/06/12 05:15:29;;;;;;;;;;;;;;;21.96;54.54;100254.41;5055770;28;19924;-66
2021/06/12 05:17:58;;;;;;;;;;;;;;;22.04;54.62;100266.78;5055053;28;20015;-65
2021/06/12 05:20:25;;;;;;;;;;;;;;;22.12;54.40;100264.94;5060524;28;19932;-65
2021/06/12 05:22:52;;;;;;;;;;;;;;;22.20;54.36;100264.00;5063208;28;20019;-66
2021/06/12 05:25:20;;;;;;;;;;;;;;;22.30;54.21;100262.63;5057117;28;19925;-66
2021/06/12 05:27:46;;;;;;;;;;;;;;;22.38;54.24;100259.59;5064284;28;20019;-67
2021/06/12 05:30:13;;;;;;;;;;;;;;;22.51;54.15;100259.50;5060447;28;20077;-65
2021/06/12 05:32:40;;;;;;;;;;;;;;;22.63;53.74;100267.91;5054466;28;20016;-65
2021/06/12 05:35:07;;;;;;;;;;;;;;;22.73;53.65;100266.53;5057188;28;19928;-67
2021/06/12 05:37:35;;;;;;;;;;;;;;;22.78;53.69;100267.06;5065184;28;20011;-66
2021/06/12 05:40:02;;;;;;;;;;;;;;;22.84;53.62;100267.63;5055852;28;19964;-66
2021/06/12 05:42:29;;;;;;;;;;;;;;;22.87;53.61;100267.72;5058957;28;19925;-62
2021/06/12 05:44:55;;;;;;;;;;;;;;;22.92;53.59;100266.59;5056308;28;19925;-70
2021/06/12 05:47:22;;;;;;;;;;;;;;;22.99;53.33;100272.47;5058317;28;20011;-66
2021/06/12 05:49:49;;;;;;;;;;;;;;;23.05;53.09;100275.88;5055376;28;19925;-73
2021/06/12 05:52:15;;;;;;;;;;;;;;;23.14;53.33;100280.13;5056264;28;19935;-64
2021/06/12 05:54:42;;;;;;;;;;;;;;;23.24;53.04;100287.28;5057274;28;19964;-64
2021/06/12 05:57:09;;;;;;;;;;;;;;;23.03;53.06;100227.81;5060071;28;20027;-67
2021/06/12 05:59:36;;;;;;;;;;;;;;;23.49;52.30;100278.47;5062385;28;19967;-62
2021/06/12 06:02:02;;;;;;;;;;;;;;;23.60;52.41;100274.63;5061326;28;19964;-66
2021/06/12 06:04:29;;;;;;;;;;;;;;;23.76;52.34;100277.44;5058615;28;19928;-65
2021/06/12 06:06:56;;;;;;;;;;;;;;;23.91;51.79;100278.53;5058179;28;20007;-63
2021/06/12 06:09:23;;;;;;;;;;;;;;;24.06;51.23;100276.75;5057426;28;20019;-62
2021/06/12 06:11:50;;;;;;;;;;;;;;;24.07;50.84;100281.28;5063640;28;19931;-63
2021/06/12 06:14:16;;;;;;;;;;;;;;;24.08;50.51;100271.50;5069082;28;19982;-64
2021/06/12 06:16:43;;;;;;;;;;;;;;;24.18;50.37;100282.28;5057131;28;20019;-64
2021/06/12 06:19:10;;;;;;;;;;;;;;;24.04;50.37;100276.31;5058327;28;20001;-61
2021/06/12 06:21:37;;;;;;;;;;;;;;;24.08;50.01;100291.47;5063970;28;20028;-62
2021/06/12 06:24:04;;;;;;;;;;;;;;;24.10;50.10;100298.47;5056801;28;19986;-62
2021/06/12 06:26:31;;;;;;;;;;;;;;;24.05;49.78;100306.50;5057920;28;19956;-67
2021/06/12 06:28:57;;;;;;;;;;;;;;;24.04;50.02;100304.84;5061349;28;20019;-62
2021/06/12 06:31:24;;;;;;;;;;;;;;;24.18;49.96;100305.13;5069913;28;19928;-63
2021/06/12 06:33:51;;;;;;;;;;;;;;;24.41;49.02;100304.31;5058252;28;19925;-61
2021/06/12 06:36:18;;;;;;;;;;;;;;;24.67;48.83;100310.09;5059449;28;20019;-62
2021/06/12 06:38:45;;;;;;;;;;;;;;;24.69;48.45;100313.38;5066075;28;19955;-61
2021/06/12 06:41:12;;;;;;;;;;;;;;;24.82;48.46;100314.84;5059955;28;20031;-61
2021/06/12 06:43:38;;;;;;;;;;;;;;;24.86;48.02;100316.94;5064602;28;19928;-62
2021/06/12 06:46:05;;;;;;;;;;;;;;;25.03;47.65;100316.38;5054444;28;21376;-62
2021/06/12 06:48:32;;;;;;;;;;;;;;;25.13;47.87;100326.34;5067364;28;20014;-60
2021/06/12 06:50:58;;;;;;;;;;;;;;;25.51;47.41;100322.41;5061470;28;20328;-62
2021/06/12 06:53:32;;;;;;;;;;;;;;;25.71;47.08;100329.63;5049469;28;19929;-62
2021/06/12 06:56:00;;;;;;;;;;;;;;;26.04;46.28;100330.84;5055322;28;19950;-63
2021/06/12 06:58:27;;;;;;;;;;;;;;;26.35;46.25;100332.41;5054260;28;19947;-62
2021/06/12 07:00:54;;;;;;;;;;;;;;;26.70;46.26;100334.84;5055255;28;19928;-62
2021/06/12 07:03:21;;;;;;;;;;;;;;;27.10;46.16;100333.09;5059902;28;20023;-61
2021/06/12 07:05:48;;;;;;;;;;;;;;;27.41;46.26;100334.53;5057504;28;20015;-62
2021/06/12 07:08:15;;;;;;;;;;;;;;;27.61;46.38;100332.19;5057601;28;19928;-62
2021/06/12 07:10:41;;;;;;;;;;;;;;;27.63;46.81;100335.50;5072858;28;20011;-63
2021/06/12 07:13:08;;;;;;;;;;;;;;;27.50;47.13;100336.25;5054183;28;19929;-62
2021/06/12 07:15:35;;;;;;;;;;;;;;;27.36;47.52;100336.97;5059533;28;20334;-63
2021/06/12 07:18:02;;;;;;;;;;;;;;;27.27;47.73;100333.63;5053340;28;20278;-63
2021/06/12 07:20:29;;;;;;;;;;;;;;;26.99;47.99;100328.50;5055097;28;20019;-61
2021/06/12 07:22:56;;;;;;;;;;;;;;;26.87;47.77;100332.50;5056431;28;20043;-62
2021/06/12 07:25:23;;;;;;;;;;;;;;;26.57;47.60;100339.22;5059514;28;19925;-62
2021/06/12 07:27:50;;;;;;;;;;;;;;;26.31;47.85;100343.00;5058267;28;20023;-61
2021/06/12 07:30:18;;;;;;;;;;;;;;;26.04;47.23;100332.88;5051187;28;19925;-61
2021/06/12 07:32:45;;;;;;;;;;;;;;;25.40;46.33;100335.72;5059366;28;20011;-61
2021/06/12 07:35:12;;;;;;;;;;;;;;;25.20;46.57;100337.91;5068797;28;19967;-62
2021/06/12 07:37:39;;;;;;;;;;;;;;;25.12;46.87;100334.09;5062363;28;19965;-62
2021/06/12 07:40:06;;;;;;;;;;;;;;;25.24;46.58;100336.72;5062698;28;19929;-61
2021/06/12 07:42:33;;;;;;;;;;;;;;;25.22;46.78;100350.56;5055249;28;19972;-62
2021/06/12 07:45:00;;;;;;;;;;;;;;;25.35;46.69;100347.50;5056806;28;19924;-62
2021/06/12 07:47:28;;;;;;;;;;;;;;;25.50;46.59;100352.19;5064940;28;20019;-62
2021/06/12 07:49:55;;;;;;;;;;;;;;;25.53;46.54;100354.28;5057812;28;19960;-62
2021/06/12 07:52:21;;;;;;;;;;;;;;;25.62;46.75;100366.25;5055789;28;19942;-62
2021/06/12 07:54:48;;;;;;;;;;;;;;;25.76;46.61;100362.78;5061988;28;20031;-62
2021/06/12 07:57:15;;;;;;;;;;;;;;;25.90;46.78;100367.88;5062046;28;19971;-62
2021/06/12 07:59:42;;;;;;;;;;;;;;;25.89;46.46;100358.47;5055699;28;20011;-62
2021/06/12 08:02:08;;;;;;;;;;;;;;;25.77;46.60;100373.81;5058134;28;19928;-62
2021/06/12 08:04:35;;;;;;;;;;;;;;;25.64;46.33;100366.72;5055744;28;19933;-63
2021/06/12 08:07:02;;;;;;;;;;;;;;;25.79;46.69;100375.47;5057420;28;20409;-63
2021/06/12 08:09:29;;;;;;;;;;;;;;;25.70;46.35;100367.19;5063766;28;20015;-63
2021/06/12 08:11:56;;;;;;;;;;;;;;;25.65;46.49;100379.78;5064013;28;20415;-64
2021/06/12 08:14:22;;;;;;;;;;;;;;;25.53;46.56;100380.84;5067992;28;19925;-62
2021/06/12 08:16:49;;;;;;;;;;;;;;;25.35;46.58;100384.66;5055543;28;19924;-63
2021/06/12 08:19:16;;;;;;;;;;;;;;;25.29;46.97;100384.16;5053691;28;19971;-63
2021/06/12 08:21:44;;;;;;;;;;;;;;;25.23;46.80;100389.38;5069774;28;19924;-63
2021/06/12 08:24:11;;;;;;;;;;;;;;;25.40;46.61;100396.59;5091953;28;19924;-63
2021/06/12 08:26:38;;;;;;;;;;;;;;;25.63;46.15;100401.41;5085285;28;20056;-63
2021/06/12 08:29:04;;;;;;;;;;;;;;;25.68;46.24;100409.66;5091954;28;20015;-63
2021/06/12 08:31:33;;;;;;;;;;;;;;;25.86;46.22;100407.06;5083123;28;19953;-62
2021/06/12 08:34:00;;;;;;;;;;;;;;;25.86;46.19;100407.88;5081581;28;19963;-62
2021/06/12 08:36:27;;;;;;;;;;;;;;;25.91;46.08;100413.25;5090032;28;19963;-62
2021/06/12 08:38:54;;;;;;;;;;;;;;;25.96;46.27;100414.97;5075965;28;19924;-62
2021/06/12 08:41:21;;;;;;;;;;;;;;;26.05;46.26;100406.91;5072851;28;20015;-62
2021/06/12 08:43:48;;;;;;;;;;;;;;;25.83;46.16;100413.56;5050327;28;19925;-62
2021/06/12 08:46:24;;;;;;;;;;;;;;;25.86;46.20;100421.38;5092084;28;19924;-62
2021/06/12 08:48:51;;;;;;;;;;;;;;;25.68;46.73;100407.63;5056326;28;19987;-62
2021/06/12 08:51:18;;;;;;;;;;;;;;;25.78;45.98;100408.97;5051818;28;20012;-62
2021/06/12 08:53:46;;;;;;;;;;;;;;;25.74;46.38;100411.78;5051786;28;19931;-62
2021/06/12 08:56:13;;;;;;;;;;;;;;;25.84;46.22;100413.16;5067651;28;20034;-62
2021/06/12 08:58:40;;;;;;;;;;;;;;;26.04;46.45;100419.56;5054114;28;20400;-62
2021/06/12 09:01:17;;;;;;;;;;;;;;;26.20;45.96;100411.59;5051556;28;19939;-62
2021/06/12 09:03:45;;;;;;;;;;;;;;;26.31;46.05;100416.63;5051418;28;19965;-62
2021/06/12 09:06:16;;;;;;;;;;;;;;;26.41;45.71;100407.31;5055588;28;20028;-62
2021/06/12 09:08:43;;;;;;;;;;;;;;;26.52;45.64;100396.84;5055184;28;19951;-62
2021/06/12 09:11:10;;;;;;;;;;;;;;;26.74;45.92;100395.03;5055151;28;19978;-62
2021/06/12 09:13:40;;;;;;;;;;;;;;;26.82;45.66;100393.03;5055691;28;19931;-62
2021/06/12 09:16:07;;;;;;;;;;;;;;;26.70;45.25;100391.28;5076498;28;19964;-64
2021/06/12 09:18:35;;;;;;;;;;;;;;;26.89;45.01;100404.56;5093841;28;20014;-63
2021/06/12 09:21:06;;;;;;;;;;;;;;;27.00;44.79;100404.66;5073510;28;19931;-63
2021/06/12 09:23:43;;;;;;;;;;;;;;;27.24;44.95;100404.06;5069269;28;20302;-62
2021/06/12 09:26:10;;;;;;;;;;;;;;;27.17;44.21;100406.88;5061837;28;20008;-63
2021/06/12 09:28:47;;;;;;;;;;;;;;;27.49;44.36;100404.25;5054902;28;19971;-62
2021/06/12 09:31:18;;;;;;;;;;;;;;;27.58;43.60;100406.75;5061732;28;20027;-63
2021/06/12 09:33:46;;;;;;;;;;;;;;;27.67;43.29;100400.66;5055015;28;19971;-62
2021/06/12 09:36:14;;;;;;;;;;;;;;;27.83;42.33;100390.53;5054823;28;19924;-62
2021/06/12 09:38:41;;;;;;;;;;;;;;;27.77;41.91;100391.34;5061534;28;20142;-63
2021/06/12 09:41:25;;;;;;;;;;;;;;;28.08;41.19;100392.69;5090312;28;20015;-62
2021/06/12 09:43:51;;;;;;;;;;;;;;;28.29;40.46;100394.81;5065128;28;20123;-62
2021/06/12 09:46:29;;;;;;;;;;;;;;;28.50;40.43;100394.91;5065105;28;19932;-63
2021/06/12 09:48:57;;;;;;;;;;;;;;;28.71;39.71;100381.81;5057100;28;20017;-63
2021/06/12 09:51:26;;;;;;;;;;;;;;;28.76;39.31;100381.41;5054346;28;20019;-63
2021/06/12 09:53:54;;;;;;;;;;;;;;;29.00;39.39;100366.25;5053228;28;19929;-63
2021/06/12 09:56:21;;;;;;;;;;;;;;;29.10;38.86;100363.78;5054887;28;20344;-63
2021/06/12 09:58:48;;;;;;;;;;;;;;;29.47;38.47;100369.91;5054755;28;19931;-63
2021/06/12 10:01:17;;;;;;;;;;;;;;;29.34;37.89;100385.94;5054387;28;20020;-63
2021/06/12 10:03:45;;;;;;;;;;;;;;;29.41;38.54;100385.94;5062499;28;20001;-63
2021/06/12 10:06:13;;;;;;;;;;;;;;;29.45;38.09;100378.09;5054173;28;20016;-63
2021/06/12 10:08:45;;;;;;;;;;;;;;;29.50;37.97;100365.34;5057216;28;19956;-63
2021/06/12 10:11:13;;;;;;;;;;;;;;;29.99;38.30;100373.03;5054106;28;19974;-63
2021/06/12 10:13:44;;;;;;;;;;;;;;;30.21;37.83;100370.06;5054925;28;19960;-63
2021/06/12 10:16:11;;;;;;;;;;;;;;;30.54;37.66;100388.81;5060695;28;19925;-63
2021/06/12 10:18:40;;;;;;;;;;;;;;;30.55;36.53;100383.88;5065439;28;20427;-62
2021/06/12 10:21:11;;;;;;;;;;;;;;;30.53;36.66;100392.09;5073920;28;20433;-62
2021/06/12 10:23:39;;;;;;;;;;;;;;;30.20;36.25;100397.25;5072321;28;19964;-62
2021/06/12 10:26:06;;;;;;;;;;;;;;;29.98;37.27;100388.69;5073516;28;20059;-62
2021/06/12 10:28:33;;;;;;;;;;;;;;;30.03;36.72;100398.13;5073713;28;20007;-62
2021/06/12 10:31:04;;;;;;;;;;;;;;;29.99;36.25;100396.06;5065089;28;19928;-62
2021/06/12 10:33:32;;;;;;;;;;;;;;;30.03;36.27;100386.59;5063935;28;20295;-62
2021/06/12 10:36:09;;;;;;;;;;;;;;;29.82;36.62;100405.59;5072859;28;20386;-62
2021/06/12 10:38:36;;;;;;;;;;;;;;;29.77;36.67;100394.50;5073124;28;19968;-62
2021/06/12 10:41:22;;;;;;;;;;;;;;;29.82;36.30;100402.72;5056780;28;19925;-63
2021/06/12 10:43:51;;;;;;;;;;;;;;;29.88;36.39;100398.19;5053245;28;20023;-63
2021/06/12 10:46:23;;;;;;;;;;;;;;;29.79;36.49;100406.41;5058305;28;19948;-63
2021/06/12 10:49:00;;;;;;;;;;;;;;;29.96;36.54;100401.84;5057438;28;20004;-63
2021/06/12 10:51:26;;;;;;;;;;;;;;;30.15;36.69;100407.09;5073286;28;20466;-62
2021/06/12 10:54:08;;;;;;;;;;;;;;;30.61;36.72;100408.13;5061283;28;19964;-61
2021/06/12 10:56:36;;;;;;;;;;;;;;;30.85;35.18;100409.22;5052868;28;20027;-62
2021/06/12 10:59:04;;;;;;;;;;;;;;;30.90;35.84;100405.88;5035783;28;19925;-62
2021/06/12 11:01:30;;;;;;;;;;;;;;;31.05;35.06;100409.50;5053205;28;19929;-62
2021/06/12 11:09:34;;;;;;;;;;;;;;;31.47;33.93;100395.94;5052976;28;19960;-62
2021/06/12 11:12:13;;;;;;;;;;;;;;;31.56;34.22;100391.31;5051614;28;19929;-63
2021/06/12 11:14:40;;;;;;;;;;;;;;;31.56;34.61;100396.25;5047847;28;19929;-62
2021/06/12 11:19:41;;;;;;;;;;;;;;;31.65;34.31;100387.91;5053138;28;20016;-63
2021/06/12 11:22:22;;;;;;;;;;;;;;;31.35;34.85;100389.47;5058406;28;20008;-63
2021/06/12 11:24:51;;;;;;;;;;;;;;;31.22;34.93;100394.09;5091689;28;20003;-63
2021/06/12 11:27:27;;;;;;;;;;;;;;;31.43;34.92;100375.78;5077997;28;20019;-63
2021/06/12 11:30:09;;;;;;;;;;;;;;;31.51;34.18;100385.16;5071630;28;20015;-63
2021/06/12 11:33:08;;;;;;;;;;;;;;;31.59;34.15;100387.56;5066820;28;19971;-63
2021/06/12 11:35:38;;;;;;;;;;;;;;;31.80;34.55;100394.34;5052429;28;20008;-62
2021/06/12 11:38:05;;;;;;;;;;;;;;;32.29;34.12;100392.91;5061022;28;19983;-63
2021/06/12 11:40:33;;;;;;;;;;;;;;;32.50;34.29;100391.00;5083800;28;20350;-63
2021/06/12 11:43:00;;;;;;;;;;;;;;;32.15;34.76;100398.06;5092574;28;20384;-63
2021/06/12 11:45:29;;;;;;;;;;;;;;;32.37;33.96;100395.69;5057347;28;19975;-62
2021/06/12 11:47:56;;;;;;;;;;;;;;;32.72;34.00;100397.28;5034620;28;19931;-62
2021/06/12 11:50:27;;;;;;;;;;;;;;;32.85;33.59;100394.59;5052342;28;19968;-63
2021/06/12 11:52:54;;;;;;;;;;;;;;;32.65;33.42;100397.38;5058396;28;20019;-63
2021/06/12 11:55:25;;;;;;;;;;;;;;;32.27;33.96;100403.25;5052628;28;19928;-63
2021/06/12 11:57:53;;;;;;;;;;;;;;;31.83;33.35;100405.84;5052340;28;19960;-63
2021/06/12 12:00:22;;;;;;;;;;;;;;;31.99;33.32;100401.56;5052244;28;20407;-63
2021/06/12 12:02:58;;;;;;;;;;;;;;;32.64;32.28;100399.47;5059207;28;19970;-64
2021/06/12 12:05:29;;;;;;;;;;;;;;;33.34;32.13;100397.94;5072592;28;19994;-63
2021/06/12 12:07:56;;;;;;;;;;;;;;;33.97;31.52;100407.47;5072238;28;20444;-63
2021/06/12 12:10:26;;;;;;;;;;;;;;;34.47;31.18;100399.81;5049909;28;19972;-63
2021/06/12 12:12:53;;;;;;;;;;;;;;;35.53;28.73;100400.59;5052578;28;20403;-63
2021/06/12 12:15:33;;;;;;;;;;;;;;;36.27;26.91;100397.63;5054072;28;20330;-63
2021/06/12 12:18:01;;;;;;;;;;;;;;;37.34;25.51;100395.47;5055124;28;19980;-63
2021/06/12 12:20:33;;;;;;;;;;;;;;;38.56;25.36;100394.69;5058490;28;20455;-64
2021/06/12 12:23:00;;;;;;;;;;;;;;;39.73;24.13;100391.00;5052931;28;19928;-66
2021/06/12 12:25:27;;;;;;;;;;;;;;;40.37;22.84;100388.03;5062574;28;19957;-66
2021/06/12 12:28:06;;;;;;;;;;;;;;;40.82;22.58;100397.16;5051821;28;19978;-62
2021/06/12 12:30:33;;;;;;;;;;;;;;;41.09;22.71;100387.47;5057604;28;20015;-63
2021/06/12 12:33:26;;;;;;;;;;;;;;;42.03;22.26;100393.00;5063687;28;20019;-62
2021/06/12 12:36:00;;;;;;;;;;;;;;;42.62;22.34;100395.16;5065095;28;19925;-66
2021/06/12 12:38:27;;;;;;;;;;;;;;;42.85;21.72;100384.63;5060620;28;19982;-62
2021/06/12 12:41:02;;;;;;;;;;;;;;;43.20;22.44;100390.50;5088957;28;20009;-66
2021/06/12 12:43:29;;;;;;;;;;;;;;;44.29;21.31;100384.16;5044440;28;20012;-69
2021/06/12 12:45:56;;;;;;;;;;;;;;;44.92;21.36;100383.34;5056278;28;20551;-64
2021/06/12 12:48:23;;;;;;;;;;;;;;;45.02;21.32;100369.22;5060426;28;19929;-63
2021/06/12 12:50:50;;;;;;;;;;;;;;;45.20;20.99;100371.78;5071582;28;19931;-69
2021/06/12 12:53:20;;;;;;;;;;;;;;;44.75;21.56;100368.50;5064521;28;19931;-68